createdAt,value
2017-05-25T00:02:39.653Z,14.55
2017-05-25T00:07:35.269Z,14.70
2017-05-25T00:12:32.310Z,14.62
2017-05-25T00:17:27.949Z,14.66
2017-05-25T00:22:26.034Z,14.44
2017-05-25T00:27:21.175Z,14.35
2017-05-25T00:32:17.076Z,14.29
2017-05-25T00:37:12.913Z,14.14
2017-05-25T00:42:09.019Z,14.20
2017-05-25T00:47:04.645Z,14.22
2017-05-25T00:52:00.295Z,14.32
2017-05-25T00:56:56.242Z,13.97
2017-05-25T01:01:52.243Z,13.81
2017-05-25T01:06:47.943Z,14.07
2017-05-25T01:11:44.102Z,14.05
2017-05-25T01:16:40.247Z,13.85
2017-05-25T01:21:36.052Z,13.99
2017-05-25T01:26:31.548Z,14.10
2017-05-25T01:31:27.641Z,13.68
2017-05-25T01:36:23.330Z,13.52
2017-05-25T01:41:19.375Z,13.62
2017-05-25T01:46:15.750Z,13.54
2017-05-25T01:51:11.164Z,13.25
2017-05-25T01:56:09.693Z,13.38
2017-05-25T02:01:04.335Z,13.44
2017-05-25T02:06:00.577Z,13.65
2017-05-25T02:10:56.182Z,13.62
2017-05-25T02:15:52.037Z,13.46
2017-05-25T02:20:47.659Z,13.54
2017-05-25T02:25:43.524Z,13.28
2017-05-25T02:30:39.179Z,13.31
2017-05-25T02:35:34.811Z,13.68
2017-05-25T02:40:30.868Z,13.53
2017-05-25T02:45:26.926Z,13.68
2017-05-25T02:50:22.671Z,13.74
2017-05-25T02:55:18.600Z,13.75
2017-05-25T03:00:14.485Z,13.65
2017-05-25T03:05:10.143Z,13.56
2017-05-25T03:10:05.707Z,13.71
2017-05-25T03:15:01.588Z,13.78
2017-05-25T03:19:57.255Z,13.95
2017-05-25T03:24:53.210Z,14.04
2017-05-25T03:29:49.061Z,13.85
2017-05-25T03:34:44.906Z,13.68
2017-05-25T03:39:41.562Z,13.78
2017-05-25T03:44:37.297Z,13.81
2017-05-25T03:49:33.235Z,13.85
2017-05-25T03:54:28.901Z,13.87
2017-05-25T03:59:25.005Z,13.81
2017-05-25T04:04:21.803Z,14.10
2017-05-25T04:09:17.254Z,13.86
2017-05-25T04:14:13.014Z,13.99
2017-05-25T04:19:09.820Z,13.93
2017-05-25T04:24:05.267Z,13.77
2017-05-25T04:29:01.278Z,13.79
2017-05-25T04:33:57.255Z,13.81
2017-05-25T04:38:53.418Z,13.85
2017-05-25T04:43:50.099Z,13.39
2017-05-25T04:48:45.618Z,13.59
2017-05-25T04:53:42.255Z,13.57
2017-05-25T04:58:37.597Z,13.39
2017-05-25T05:03:33.774Z,13.22
2017-05-25T05:08:29.366Z,13.54
2017-05-25T05:13:25.497Z,13.47
2017-05-25T05:18:21.175Z,13.44
2017-05-25T05:23:17.010Z,13.42
2017-05-25T05:28:12.872Z,13.67
2017-05-25T05:33:08.836Z,13.62
2017-05-25T05:38:04.033Z,13.09
2017-05-25T05:43:00.602Z,13.33
2017-05-25T05:47:56.380Z,13.67
2017-05-25T05:52:52.481Z,13.70
2017-05-25T05:57:48.461Z,13.81
2017-05-25T06:02:45.672Z,13.85
2017-05-25T06:07:41.808Z,13.85
2017-05-25T06:12:37.647Z,14.04
2017-05-25T06:17:33.492Z,14.07
2017-05-25T06:22:29.782Z,13.99
2017-05-25T06:27:25.912Z,14.35
2017-05-25T06:32:22.275Z,14.78
2017-05-25T06:37:18.562Z,14.85
2017-05-25T06:42:14.350Z,14.68
2017-05-25T06:47:09.691Z,14.81
2017-05-25T06:52:06.911Z,14.70
2017-05-25T06:57:02.352Z,14.85
2017-05-25T07:01:58.775Z,15.21
2017-05-25T07:06:54.816Z,15.35
2017-05-25T07:11:51.203Z,15.37
2017-05-25T07:16:46.841Z,15.35
2017-05-25T07:21:42.258Z,15.19
2017-05-25T07:26:38.152Z,15.35
2017-05-25T07:31:34.627Z,15.75
2017-05-25T07:36:30.596Z,15.86
2017-05-25T07:41:26.553Z,15.90
2017-05-25T07:46:23.209Z,16.39
2017-05-25T07:51:23.899Z,17.41
2017-05-25T07:56:21.121Z,17.54
2017-05-25T08:01:16.329Z,17.04
2017-05-25T08:06:12.066Z,16.69
2017-05-25T08:11:07.485Z,16.93
2017-05-25T08:16:07.758Z,16.93
2017-05-25T08:21:02.628Z,17.14
2017-05-25T08:26:01.942Z,18.31
2017-05-25T08:31:00.583Z,19.12
2017-05-25T08:35:58.844Z,18.05
2017-05-25T08:40:53.606Z,18.86
2017-05-25T08:45:48.873Z,18.77
2017-05-25T08:50:46.502Z,19.37
2017-05-25T09:00:49.225Z,19.85
2017-05-25T09:05:48.106Z,20.07
2017-05-25T09:10:45.200Z,19.74
2017-05-25T09:15:40.949Z,19.30
2017-05-25T09:20:37.764Z,18.90
2017-05-25T09:25:33.600Z,19.84
2017-05-25T09:30:30.179Z,20.09
2017-05-25T09:35:28.368Z,20.93
2017-05-25T09:40:25.013Z,21.77
2017-05-25T09:45:21.319Z,20.52
2017-05-25T09:50:18.993Z,20.59
2017-05-25T09:55:14.716Z,21.12
2017-05-25T10:00:11.599Z,21.15
2017-05-25T10:05:07.414Z,21.52
2017-05-25T10:10:04.733Z,20.87
2017-05-25T10:15:00.729Z,21.00
2017-05-25T10:19:57.092Z,21.32
2017-05-25T10:24:53.543Z,22.00
2017-05-25T10:29:50.238Z,21.67
2017-05-25T10:34:46.132Z,20.29
2017-05-25T10:39:41.268Z,20.70
2017-05-25T10:44:37.532Z,21.21
2017-05-25T10:49:34.188Z,21.48
2017-05-25T10:54:31.502Z,20.65
2017-05-25T10:59:27.023Z,20.95
2017-05-25T11:04:23.886Z,21.80
2017-05-25T11:09:21.198Z,22.62
2017-05-25T11:14:17.938Z,22.07
2017-05-25T11:19:14.696Z,22.00
2017-05-25T11:24:11.206Z,21.40
2017-05-25T11:29:07.366Z,22.23
2017-05-25T11:34:03.945Z,22.84
2017-05-25T11:39:00.460Z,22.50
2017-05-25T11:43:56.611Z,22.17
2017-05-25T11:48:54.404Z,22.38
2017-05-25T11:53:51.470Z,23.27
2017-05-25T11:58:47.598Z,22.88
2017-05-25T12:03:43.830Z,22.68
2017-05-25T12:08:39.697Z,21.92
2017-05-25T12:13:35.432Z,22.45
2017-05-25T12:18:31.483Z,22.51
2017-05-25T12:23:28.701Z,23.00
2017-05-25T12:28:24.536Z,23.23
2017-05-25T12:33:20.685Z,23.39
2017-05-25T12:38:16.574Z,23.10
2017-05-25T12:43:15.751Z,23.15
2017-05-25T12:48:11.578Z,23.24
2017-05-25T12:53:07.292Z,23.83
2017-05-25T12:58:03.848Z,23.21
2017-05-25T13:02:59.471Z,23.34
2017-05-25T13:07:54.151Z,23.66
2017-05-25T13:12:51.020Z,23.37
2017-05-25T13:17:46.312Z,22.44
2017-05-25T13:22:40.997Z,21.93
2017-05-25T13:27:36.059Z,22.51
2017-05-25T13:32:30.771Z,22.90
2017-05-25T13:37:25.321Z,22.41
2017-05-25T13:42:20.771Z,22.41
2017-05-25T13:47:18.189Z,22.41
2017-05-25T13:52:13.234Z,22.30
2017-05-25T13:57:08.432Z,22.28
2017-05-25T14:02:03.934Z,22.39
2017-05-25T14:06:59.665Z,21.99
2017-05-25T14:11:54.879Z,22.18
2017-05-25T14:16:50.336Z,22.32
2017-05-25T14:21:45.904Z,22.06
2017-05-25T14:26:41.499Z,22.13
2017-05-25T14:31:37.312Z,22.15
2017-05-25T14:36:33.463Z,22.47
2017-05-25T14:41:30.072Z,22.41
2017-05-25T14:46:25.631Z,22.38
2017-05-25T14:51:21.643Z,22.55
2017-05-25T14:56:17.877Z,22.54
2017-05-25T15:01:13.659Z,22.51
2017-05-25T15:06:10.133Z,22.43
2017-05-25T15:11:05.727Z,22.78
2017-05-25T15:16:01.999Z,23.06
2017-05-25T15:21:00.794Z,22.90
2017-05-25T15:25:56.362Z,23.02
2017-05-25T15:30:52.306Z,22.87
2017-05-25T15:35:48.374Z,23.02
2017-05-25T15:40:47.116Z,22.94
2017-05-25T15:45:42.239Z,22.85
2017-05-25T15:50:39.236Z,22.73
2017-05-25T15:55:34.954Z,22.62
2017-05-25T16:00:32.922Z,22.35
2017-05-25T16:05:28.321Z,22.45
2017-05-25T16:10:24.519Z,22.76
2017-05-25T16:15:20.642Z,22.81
2017-05-25T16:20:16.661Z,22.57
2017-05-25T16:25:13.487Z,22.48
2017-05-25T16:30:09.667Z,22.38
2017-05-25T16:35:05.129Z,22.25
2017-05-25T16:40:00.829Z,22.07
2017-05-25T16:44:57.295Z,22.06
2017-05-25T16:54:59.113Z,22.11
2017-05-25T17:04:56.708Z,22.43
2017-05-25T17:09:55.543Z,22.55
2017-05-25T17:14:51.678Z,22.45
2017-05-25T17:19:47.530Z,22.53
2017-05-25T17:24:43.636Z,21.99
2017-05-25T17:34:42.206Z,21.58
2017-05-25T17:39:40.145Z,21.46
2017-05-25T17:44:35.163Z,21.51
2017-05-25T17:49:34.587Z,21.51
2017-05-25T17:54:30.721Z,21.54
2017-05-25T17:59:27.843Z,21.42
2017-05-25T18:04:26.072Z,21.24
2017-05-25T18:09:22.152Z,21.06
2017-05-25T18:14:17.296Z,21.02
2017-05-25T18:19:19.273Z,20.95
2017-05-25T18:24:13.539Z,20.92
2017-05-25T18:29:09.848Z,20.85
2017-05-25T18:34:06.538Z,20.67
2017-05-25T18:39:02.039Z,20.65
2017-05-25T18:49:03.810Z,20.44
2017-05-25T18:54:02.787Z,20.36
2017-05-25T18:58:59.838Z,20.39
2017-05-25T19:04:01.525Z,20.37
2017-05-25T19:13:58.957Z,20.09
2017-05-25T19:18:55.849Z,20.00
2017-05-25T19:24:00.533Z,19.92
2017-05-25T19:28:54.739Z,19.76
2017-05-25T19:33:51.830Z,19.67
2017-05-25T19:38:48.895Z,19.64
2017-05-25T19:48:44.622Z,19.34
2017-05-25T19:53:40.420Z,19.31
2017-05-25T19:58:36.223Z,19.24
2017-05-25T20:03:32.083Z,19.14
2017-05-25T20:08:30.001Z,19.12
2017-05-25T20:13:32.455Z,18.98
2017-05-25T20:23:33.487Z,18.75
2017-05-25T20:28:32.210Z,18.68
2017-05-25T20:33:27.470Z,18.59
2017-05-25T20:38:24.844Z,18.53
2017-05-25T20:48:23.538Z,18.50
2017-05-25T20:53:19.619Z,18.34
2017-05-25T21:03:17.858Z,18.26
2017-05-25T21:13:14.102Z,18.05
2017-05-25T21:18:12.199Z,18.01
2017-05-25T21:28:16.329Z,18.01
2017-05-25T21:33:12.708Z,17.79
2017-05-25T21:43:10.835Z,17.86
2017-05-25T21:48:06.710Z,17.68
2017-05-25T21:53:04.064Z,17.78
2017-05-25T21:58:00.365Z,17.89
2017-05-25T22:07:56.379Z,17.54
2017-05-25T22:12:52.921Z,17.42
2017-05-25T22:17:49.180Z,17.42
2017-05-25T22:32:50.374Z,17.38
2017-05-25T22:37:46.268Z,17.30
2017-05-25T22:42:42.819Z,17.48
2017-05-25T22:47:42.243Z,17.39
2017-05-25T22:52:37.575Z,17.14
2017-05-25T22:57:35.178Z,17.15
2017-05-25T23:02:30.972Z,17.04
2017-05-25T23:07:28.073Z,17.23
2017-05-25T23:12:23.703Z,17.02
2017-05-25T23:17:19.308Z,16.90
2017-05-25T23:22:16.534Z,16.96
2017-05-25T23:27:12.434Z,16.72
2017-05-25T23:32:08.856Z,16.83
2017-05-25T23:37:06.505Z,16.75
2017-05-25T23:42:05.451Z,16.69
2017-05-25T23:47:01.187Z,16.46
2017-05-25T23:57:01.265Z,16.43
